createdAt,value
2023-02-14T00:00:04.956Z,28.55
2023-02-14T00:02:06.903Z,26.10
2023-02-14T00:04:11.921Z,23.60
2023-02-14T00:06:14.386Z,22.77
2023-02-14T00:08:17.306Z,22.65
2023-02-14T00:10:19.189Z,22.45
2023-02-14T00:12:20.925Z,22.35
2023-02-14T00:14:24.024Z,19.63
2023-02-14T00:16:25.876Z,23.77
2023-02-14T00:18:28.792Z,21.10
2023-02-14T00:20:31.612Z,20.30
2023-02-14T00:22:33.234Z,20.50
2023-02-14T00:24:37.233Z,19.55
2023-02-14T00:26:39.280Z,19.35
2023-02-14T00:28:40.946Z,22.42
2023-02-14T00:30:43.977Z,21.20
2023-02-14T00:32:45.595Z,22.55
2023-02-14T00:34:47.313Z,20.83
2023-02-14T00:36:49.173Z,21.30
2023-02-14T00:38:50.817Z,20.17
2023-02-14T00:40:52.484Z,18.48
2023-02-14T00:42:56.918Z,18.90
2023-02-14T00:44:58.565Z,18.35
2023-02-14T00:47:01.633Z,20.67
2023-02-14T00:49:04.125Z,19.13
2023-02-14T00:51:06.027Z,18.17
2023-02-14T00:53:07.729Z,19.92
2023-02-14T00:55:10.494Z,21.58
2023-02-14T00:57:12.119Z,24.13
2023-02-14T00:59:13.905Z,22.95
2023-02-14T01:01:16.994Z,23.35
2023-02-14T01:03:20.265Z,19.63
2023-02-14T01:05:21.996Z,19.80
2023-02-14T01:07:23.707Z,19.58
2023-02-14T01:09:25.506Z,22.65
2023-02-14T01:11:29.289Z,20.27
2023-02-14T01:13:31.690Z,21.25
2023-02-14T01:15:34.083Z,17.60
2023-02-14T01:17:35.693Z,20.60
2023-02-14T01:19:38.695Z,15.40
2023-02-14T01:21:41.638Z,20.80
2023-02-14T01:23:44.519Z,17.33
2023-02-14T01:25:46.268Z,17.15
2023-02-14T01:27:47.858Z,17.67
2023-02-14T01:29:49.611Z,19.13
2023-02-14T01:31:51.630Z,21.08
2023-02-14T01:33:54.379Z,18.88
2023-02-14T01:35:57.492Z,20.05
2023-02-14T01:37:59.427Z,16.85
2023-02-14T01:40:07.145Z,19.73
2023-02-14T01:42:10.718Z,21.23
2023-02-14T01:44:45.764Z,22.88
2023-02-14T01:46:47.544Z,19.77
2023-02-14T01:48:50.772Z,21.15
2023-02-14T01:50:53.943Z,19.38
2023-02-14T01:53:02.440Z,24.58
2023-02-14T01:55:12.155Z,17.42
2023-02-14T01:57:17.398Z,28.30
2023-02-14T01:59:25.253Z,21.63
2023-02-14T02:01:28.105Z,22.65
2023-02-14T02:03:34.100Z,22.52
2023-02-14T02:05:37.844Z,20.98
2023-02-14T02:07:39.962Z,20.92
2023-02-14T02:09:49.204Z,21.42
2023-02-14T02:11:51.264Z,21.77
2023-02-14T02:13:52.911Z,20.10
2023-02-14T02:16:11.148Z,21.50
2023-02-14T02:18:23.955Z,22.48
2023-02-14T02:20:59.248Z,19.52
2023-02-14T02:23:38.568Z,19.85
2023-02-14T02:26:07.102Z,19.10
2023-02-14T02:28:32.133Z,21.88
2023-02-14T02:31:03.925Z,19.85
2023-02-14T02:33:53.296Z,20.27
2023-02-14T02:36:13.103Z,20.98
2023-02-14T02:38:27.896Z,18.17
2023-02-14T02:40:44.654Z,20.00
2023-02-14T02:42:58.317Z,23.20
2023-02-14T02:45:10.696Z,19.55
2023-02-14T02:47:21.389Z,22.13
2023-02-14T02:49:37.039Z,18.08
2023-02-14T02:51:47.957Z,17.92
2023-02-14T02:53:52.410Z,20.20
2023-02-14T02:55:57.556Z,22.50
2023-02-14T02:58:00.013Z,23.50
2023-02-14T03:00:04.235Z,23.13
2023-02-14T03:02:12.683Z,19.20
2023-02-14T03:04:16.593Z,20.88
2023-02-14T03:06:18.178Z,19.33
2023-02-14T03:08:21.168Z,19.70
2023-02-14T03:10:24.837Z,25.02
2023-02-14T03:12:47.156Z,20.98
2023-02-14T03:14:56.061Z,19.52
2023-02-14T03:17:04.453Z,23.52
2023-02-14T03:19:40.011Z,21.20
2023-02-14T03:21:48.680Z,19.60
2023-02-14T03:23:56.525Z,19.92
2023-02-14T03:26:09.985Z,20.52
2023-02-14T03:28:17.549Z,20.15
2023-02-14T03:30:30.296Z,20.73
2023-02-14T03:32:38.749Z,21.35
2023-02-14T03:34:51.477Z,19.02
2023-02-14T03:36:58.537Z,18.23
2023-02-14T03:39:08.037Z,19.42
2023-02-14T03:41:14.078Z,20.33
2023-02-14T03:43:21.320Z,19.25
2023-02-14T03:45:30.333Z,21.33
2023-02-14T03:47:36.110Z,18.05
2023-02-14T03:49:43.587Z,17.83
2023-02-14T03:51:49.774Z,18.80
2023-02-14T03:54:04.801Z,21.27
2023-02-14T03:56:13.894Z,17.40
2023-02-14T03:58:21.487Z,18.83
2023-02-14T04:00:23.771Z,21.38
2023-02-14T04:02:31.042Z,22.55
2023-02-14T04:04:37.086Z,22.33
2023-02-14T04:06:39.085Z,23.13
2023-02-14T04:08:40.766Z,22.08
2023-02-14T04:10:43.710Z,20.58
2023-02-14T04:12:46.229Z,24.75
2023-02-14T04:14:55.354Z,30.15
2023-02-14T04:16:57.054Z,23.30
2023-02-14T04:18:58.654Z,22.15
2023-02-14T04:21:00.696Z,22.00
2023-02-14T04:23:04.328Z,20.20
2023-02-14T04:25:07.883Z,19.85
2023-02-14T04:27:11.390Z,23.25
2023-02-14T04:29:13.282Z,23.08
2023-02-14T04:31:18.034Z,24.52
2023-02-14T04:33:19.715Z,22.40
2023-02-14T04:35:21.658Z,22.40
2023-02-14T04:37:24.257Z,19.13
2023-02-14T04:39:26.316Z,22.77
2023-02-14T04:41:27.943Z,23.27
2023-02-14T04:43:31.116Z,23.00
2023-02-14T04:45:34.527Z,22.70
2023-02-14T04:47:36.193Z,21.23
2023-02-14T04:49:37.861Z,20.10
2023-02-14T04:51:41.781Z,21.20
2023-02-14T04:53:44.089Z,20.08
2023-02-14T04:55:45.765Z,20.55
2023-02-14T04:57:47.751Z,21.25
2023-02-14T04:59:50.806Z,19.20
2023-02-14T05:01:53.119Z,22.48
2023-02-14T05:03:54.822Z,23.02
2023-02-14T05:05:56.598Z,20.85
2023-02-14T05:07:58.235Z,21.60
2023-02-14T05:10:01.353Z,22.15
2023-02-14T05:12:11.105Z,24.08
2023-02-14T05:14:12.718Z,23.08
2023-02-14T05:16:15.757Z,21.77
2023-02-14T05:18:17.325Z,21.88
2023-02-14T05:20:19.057Z,21.35
2023-02-14T05:22:20.623Z,21.92
2023-02-14T05:24:22.308Z,24.25
2023-02-14T05:26:23.891Z,23.13
2023-02-14T05:28:25.577Z,22.13
2023-02-14T05:30:27.284Z,24.73
2023-02-14T05:32:30.196Z,31.05
2023-02-14T05:34:31.716Z,26.80
2023-02-14T05:36:33.462Z,27.17
2023-02-14T05:38:35.035Z,27.20
2023-02-14T05:40:36.581Z,25.38
2023-02-14T05:42:38.373Z,25.45
2023-02-14T05:44:39.940Z,27.38
2023-02-14T05:46:41.512Z,24.65
2023-02-14T05:48:44.578Z,22.60
2023-02-14T05:53:01.841Z,22.88
2023-02-14T05:55:04.337Z,23.98
2023-02-14T05:57:05.894Z,24.88
2023-02-14T05:59:07.457Z,21.88
2023-02-14T06:01:09.046Z,24.95
2023-02-14T06:03:10.664Z,34.20
2023-02-14T06:05:13.513Z,37.30
2023-02-14T06:07:15.125Z,31.98
2023-02-14T06:09:16.761Z,31.52
2023-02-14T06:11:18.344Z,32.92
2023-02-14T06:13:19.946Z,30.17
2023-02-14T06:15:22.244Z,28.83
2023-02-14T06:17:23.805Z,29.95
2023-02-14T06:19:25.385Z,25.38
2023-02-14T06:21:28.444Z,26.38
2023-02-14T06:23:30.052Z,27.35
2023-02-14T06:25:31.781Z,31.15
2023-02-14T06:27:33.473Z,28.77
2023-02-14T06:29:35.054Z,23.58
2023-02-14T06:31:36.998Z,23.08
2023-02-14T06:33:38.669Z,22.58
2023-02-14T06:35:40.185Z,25.02
2023-02-14T06:37:43.204Z,21.95
2023-02-14T06:39:44.778Z,25.75
2023-02-14T06:41:46.363Z,21.73
2023-02-14T06:43:48.196Z,24.65
2023-02-14T06:45:49.778Z,27.85
2023-02-14T06:47:51.408Z,26.35
2023-02-14T06:49:52.982Z,25.75
2023-02-14T06:51:54.545Z,28.27
2023-02-14T06:53:57.579Z,27.38
2023-02-14T06:55:59.200Z,27.30
2023-02-14T06:58:00.843Z,26.05
2023-02-14T07:00:03.037Z,23.48
2023-02-14T07:02:04.956Z,22.48
2023-02-14T07:04:06.485Z,22.15
2023-02-14T07:06:08.020Z,24.02
2023-02-14T07:08:09.701Z,26.58
2023-02-14T07:10:13.328Z,25.52
2023-02-14T07:12:14.916Z,25.77
2023-02-14T07:14:16.477Z,24.45
2023-02-14T07:16:18.104Z,28.75
2023-02-14T07:18:19.747Z,24.60
2023-02-14T07:20:21.538Z,29.73
2023-02-14T07:22:23.112Z,26.38
2023-02-14T07:24:24.777Z,25.67
2023-02-14T07:26:27.796Z,32.50
2023-02-14T07:28:32.512Z,25.65
2023-02-14T07:30:34.264Z,29.02
2023-02-14T07:32:37.165Z,25.38
2023-02-14T07:34:38.705Z,30.58
2023-02-14T07:36:40.341Z,27.67
2023-02-14T07:38:42.022Z,28.88
2023-02-14T07:40:43.726Z,29.40
2023-02-14T07:42:52.670Z,28.40
2023-02-14T07:44:54.359Z,28.45
2023-02-14T07:46:56.041Z,32.95
2023-02-14T07:48:57.557Z,28.58
2023-02-14T07:50:59.576Z,28.95
2023-02-14T07:53:01.433Z,33.40
2023-02-14T07:55:03.036Z,26.75
2023-02-14T07:57:05.480Z,32.95
2023-02-14T07:59:08.457Z,40.58
2023-02-14T08:01:09.953Z,60.03
2023-02-14T08:03:11.599Z,42.33
2023-02-14T08:05:16.335Z,35.58
2023-02-14T08:07:18.107Z,32.75
2023-02-14T08:09:20.715Z,56.60
2023-02-14T08:11:22.290Z,36.08
2023-02-14T08:13:23.864Z,31.38
2023-02-14T08:15:27.850Z,36.50
2023-02-14T08:17:29.400Z,31.98
2023-02-14T08:19:30.922Z,34.53
2023-02-14T08:21:32.640Z,36.10
2023-02-14T08:23:35.129Z,50.38
2023-02-14T08:25:36.698Z,57.90
2023-02-14T08:27:38.324Z,38.53
2023-02-14T08:29:39.876Z,31.52
2023-02-14T08:31:42.965Z,40.45
2023-02-14T08:33:44.614Z,48.40
2023-02-14T08:35:46.298Z,40.90
2023-02-14T08:37:48.076Z,36.25
2023-02-14T08:39:50.020Z,36.90
2023-02-14T08:41:51.581Z,34.33
2023-02-14T08:43:53.220Z,40.22
2023-02-14T08:45:55.255Z,31.98
2023-02-14T08:48:02.691Z,33.63
2023-02-14T08:50:05.757Z,45.30
2023-02-14T08:52:07.323Z,36.28
2023-02-14T08:54:08.873Z,88.72
2023-02-14T08:56:11.990Z,38.25
2023-02-14T08:58:13.632Z,39.28
2023-02-14T09:00:15.941Z,34.67
2023-02-14T09:02:17.502Z,36.90
2023-02-14T09:04:20.441Z,37.42
2023-02-14T09:06:22.099Z,38.38
2023-02-14T09:08:23.684Z,39.05
2023-02-14T09:10:25.703Z,38.67
2023-02-14T09:12:27.363Z,33.05
2023-02-14T09:14:31.173Z,36.00
2023-02-14T09:16:33.782Z,33.58
2023-02-14T09:18:37.835Z,28.48
2023-02-14T09:20:40.723Z,33.92
2023-02-14T09:22:42.369Z,30.55
2023-02-14T09:24:44.670Z,33.80
2023-02-14T09:26:46.185Z,35.20
2023-02-14T09:28:48.177Z,36.55
2023-02-14T09:30:49.835Z,35.95
2023-02-14T09:32:52.583Z,32.50
2023-02-14T09:34:54.227Z,33.15
2023-02-14T09:36:59.929Z,35.80
2023-02-14T09:39:01.720Z,28.98
2023-02-14T09:41:05.840Z,34.42
2023-02-14T09:43:11.635Z,32.58
2023-02-14T09:45:16.660Z,31.85
2023-02-14T09:47:23.052Z,30.60
2023-02-14T09:49:31.632Z,28.75
2023-02-14T09:51:33.405Z,30.48
2023-02-14T09:53:43.667Z,31.58
2023-02-14T09:55:53.957Z,30.83
2023-02-14T09:58:04.792Z,29.42
2023-02-14T10:00:17.451Z,36.22
2023-02-14T10:02:33.639Z,31.65
2023-02-14T10:04:40.508Z,38.33
2023-02-14T10:06:50.399Z,31.27
2023-02-14T10:09:02.845Z,42.33
2023-02-14T10:11:15.375Z,33.90
2023-02-14T10:13:22.469Z,29.85
2023-02-14T10:15:27.478Z,33.63
2023-02-14T10:17:38.260Z,28.83
2023-02-14T10:19:43.694Z,31.85
2023-02-14T10:21:52.170Z,35.40
2023-02-14T10:24:00.210Z,40.67
2023-02-14T10:26:04.154Z,37.92
2023-02-14T10:28:11.292Z,34.85
2023-02-14T10:30:16.871Z,37.33
2023-02-14T10:32:25.204Z,36.20
2023-02-14T10:34:35.076Z,36.38
2023-02-14T10:36:51.221Z,37.55
2023-02-14T10:39:01.405Z,37.80
2023-02-14T10:41:18.974Z,35.38
2023-02-14T10:43:27.903Z,36.88
2023-02-14T10:45:38.954Z,36.60
2023-02-14T10:47:47.302Z,39.05
2023-02-14T10:49:57.896Z,39.33
2023-02-14T10:52:08.301Z,42.15
2023-02-14T10:54:19.205Z,40.00
2023-02-14T10:56:26.110Z,40.70
2023-02-14T10:58:32.186Z,39.33
2023-02-14T11:00:37.821Z,34.83
2023-02-14T11:02:43.304Z,42.00
2023-02-14T11:04:46.364Z,40.58
2023-02-14T11:06:48.147Z,39.50
2023-02-14T11:08:59.152Z,41.38
2023-02-14T11:11:10.944Z,38.42
2023-02-14T11:13:34.916Z,40.95
2023-02-14T11:15:39.740Z,40.00
2023-02-14T11:17:41.849Z,34.42
2023-02-14T11:19:57.143Z,39.03
2023-02-14T11:22:00.066Z,40.58
2023-02-14T11:24:16.730Z,40.45
2023-02-14T11:26:29.902Z,40.65
2023-02-14T11:28:32.186Z,42.35
2023-02-14T11:30:36.660Z,43.97
2023-02-14T11:32:38.848Z,35.38
2023-02-14T11:34:44.418Z,40.33
2023-02-14T11:36:46.009Z,40.92
2023-02-14T11:38:55.917Z,45.90
2023-02-14T11:40:59.433Z,41.22
2023-02-14T11:43:19.187Z,38.47
2023-02-14T11:45:33.339Z,41.78
2023-02-14T11:47:36.285Z,40.35
2023-02-14T11:49:37.965Z,39.47
2023-02-14T11:51:43.930Z,42.30
2023-02-14T11:53:48.379Z,39.25
2023-02-14T11:55:53.851Z,40.05
2023-02-14T11:57:56.428Z,42.65
2023-02-14T12:00:01.845Z,35.25
2023-02-14T12:02:24.444Z,43.03
2023-02-14T12:04:38.115Z,40.40
2023-02-14T12:06:46.498Z,44.10
2023-02-14T12:08:48.291Z,44.85
2023-02-14T12:11:01.966Z,44.35
2023-02-14T12:13:22.998Z,45.38
2023-02-14T12:15:32.355Z,50.45
2023-02-14T12:17:37.350Z,43.85
2023-02-14T12:19:48.957Z,42.72
2023-02-14T12:21:57.911Z,45.42
2023-02-14T12:24:05.932Z,45.95
2023-02-14T12:26:15.280Z,42.33
2023-02-14T12:28:24.814Z,42.33
2023-02-14T12:30:33.157Z,48.22
2023-02-14T12:32:35.498Z,42.28
2023-02-14T12:34:37.386Z,50.63
2023-02-14T12:36:51.564Z,43.13
2023-02-14T12:39:02.458Z,42.03
2023-02-14T12:41:19.494Z,42.90
2023-02-14T12:43:41.122Z,45.03
2023-02-14T12:46:09.614Z,41.53
2023-02-14T12:48:20.420Z,42.78
2023-02-14T12:50:35.149Z,40.53
2023-02-14T12:53:01.185Z,46.63
2023-02-14T12:55:25.786Z,52.92
2023-02-14T12:57:39.340Z,41.28
2023-02-14T12:59:52.063Z,40.28
2023-02-14T13:02:36.985Z,44.95
2023-02-14T13:04:59.503Z,42.05
2023-02-14T13:07:07.826Z,41.00
2023-02-14T13:09:27.665Z,41.20
2023-02-14T13:11:39.588Z,41.03
2023-02-14T13:13:54.288Z,44.60
2023-02-14T13:16:05.012Z,45.17
2023-02-14T13:18:15.008Z,40.97
2023-02-14T13:20:36.800Z,45.08
2023-02-14T13:22:40.567Z,40.05
2023-02-14T13:24:44.532Z,46.38
2023-02-14T13:26:49.842Z,50.13
2023-02-14T13:28:56.083Z,46.40
2023-02-14T13:31:00.038Z,45.80
2023-02-14T13:33:27.508Z,47.28
2023-02-14T13:35:30.316Z,45.25
2023-02-14T13:37:32.887Z,45.95
2023-02-14T13:39:38.656Z,52.03
2023-02-14T13:41:41.250Z,49.08
2023-02-14T13:43:52.043Z,45.15
2023-02-14T13:45:54.682Z,48.58
2023-02-14T13:48:03.376Z,45.85
2023-02-14T13:50:21.511Z,48.72
2023-02-14T13:52:42.948Z,47.10
2023-02-14T13:54:47.823Z,44.55
2023-02-14T13:56:49.715Z,47.10
2023-02-14T13:58:54.018Z,45.50
2023-02-14T14:00:56.571Z,44.60
2023-02-14T14:02:58.314Z,46.25
2023-02-14T14:05:00.000Z,48.75
2023-02-14T14:07:23.984Z,44.35
2023-02-14T14:09:53.318Z,44.90
2023-02-14T14:11:54.956Z,50.10
2023-02-14T14:14:01.807Z,49.83
2023-02-14T14:16:28.549Z,46.25
2023-02-14T14:18:38.141Z,52.05
2023-02-14T14:20:44.416Z,40.50
2023-02-14T14:22:49.298Z,43.22
2023-02-14T14:25:02.291Z,41.38
2023-02-14T14:27:07.221Z,42.30
2023-02-14T14:29:18.137Z,41.70
2023-02-14T14:31:20.328Z,46.53
2023-02-14T14:33:28.687Z,47.58
2023-02-14T14:35:30.211Z,44.17
2023-02-14T14:37:34.078Z,46.25
2023-02-14T14:39:37.208Z,54.50
2023-02-14T14:41:40.401Z,43.08
2023-02-14T14:43:42.372Z,49.25
2023-02-14T14:45:46.949Z,45.65
2023-02-14T14:47:52.907Z,51.33
2023-02-14T14:50:00.274Z,44.67
2023-02-14T14:52:02.035Z,46.28
2023-02-14T14:54:13.145Z,43.50
2023-02-14T14:56:21.924Z,44.45
2023-02-14T14:58:33.237Z,48.70
2023-02-14T15:00:37.147Z,55.25
2023-02-14T15:02:38.908Z,60.83
2023-02-14T15:04:40.637Z,47.53
2023-02-14T15:06:42.452Z,54.25
2023-02-14T15:08:44.550Z,48.97
2023-02-14T15:10:50.564Z,53.38
2023-02-14T15:12:57.237Z,49.50
2023-02-14T15:14:58.878Z,45.25
2023-02-14T15:17:03.313Z,46.08
2023-02-14T15:19:09.082Z,50.42
2023-02-14T15:21:10.828Z,50.55
2023-02-14T15:23:18.426Z,46.88
2023-02-14T15:25:22.522Z,48.75
2023-02-14T15:27:26.319Z,45.38
2023-02-14T15:29:32.104Z,44.92
2023-02-14T15:31:37.030Z,48.13
2023-02-14T15:33:39.083Z,48.03
2023-02-14T15:35:41.980Z,49.35
2023-02-14T15:37:44.435Z,52.78
2023-02-14T15:39:49.522Z,47.58
2023-02-14T15:41:53.680Z,54.58
2023-02-14T15:43:56.541Z,50.30
2023-02-14T15:46:13.528Z,54.85
2023-02-14T15:48:18.665Z,50.47
2023-02-14T15:50:23.452Z,63.47
2023-02-14T15:52:25.377Z,56.25
2023-02-14T15:54:36.698Z,61.65
2023-02-14T15:56:44.279Z,51.97
2023-02-14T15:58:46.617Z,59.80
2023-02-14T16:00:50.082Z,87.97
2023-02-14T16:02:56.403Z,78.43
2023-02-14T16:05:04.678Z,103.38
2023-02-14T16:07:24.764Z,83.88
2023-02-14T16:09:28.628Z,62.60
2023-02-14T16:11:32.137Z,56.75
2023-02-14T16:13:38.440Z,54.05
2023-02-14T16:15:55.754Z,61.30
2023-02-14T16:17:59.844Z,56.95
2023-02-14T16:20:20.556Z,58.80
2023-02-14T16:22:26.032Z,55.70
2023-02-14T16:24:27.674Z,61.78
2023-02-14T16:26:30.850Z,60.92
2023-02-14T16:28:33.382Z,58.33
2023-02-14T16:30:35.400Z,58.58
2023-02-14T16:32:37.110Z,51.47
2023-02-14T16:34:40.581Z,63.05
2023-02-14T16:36:43.426Z,63.03
2023-02-14T16:38:46.134Z,65.75
2023-02-14T16:40:49.808Z,61.95
2023-02-14T16:42:51.415Z,59.47
2023-02-14T16:44:53.435Z,48.92
2023-02-14T16:46:55.010Z,54.63
2023-02-14T16:48:56.799Z,54.15
2023-02-14T16:51:00.155Z,55.42
2023-02-14T16:53:02.113Z,59.55
2023-02-14T16:55:04.960Z,49.95
2023-02-14T16:57:07.333Z,103.57
2023-02-14T16:59:09.103Z,80.28
2023-02-14T17:01:10.857Z,49.22
2023-02-14T17:03:12.632Z,63.40
2023-02-14T17:05:14.397Z,54.80
2023-02-14T17:07:17.392Z,50.65
2023-02-14T17:09:22.799Z,44.63
2023-02-14T17:11:26.842Z,47.63
2023-02-14T17:13:31.528Z,48.30
2023-02-14T17:15:34.071Z,39.00
2023-02-14T17:17:37.303Z,53.58
2023-02-14T17:19:39.289Z,48.88
2023-02-14T17:21:41.297Z,48.90
2023-02-14T17:23:44.315Z,45.85
2023-02-14T17:28:01.465Z,49.97
2023-02-14T17:30:03.634Z,48.22
2023-02-14T17:32:05.609Z,50.08
2023-02-14T17:34:07.417Z,45.70
2023-02-14T17:36:12.021Z,44.72
2023-02-14T17:38:13.748Z,42.25
2023-02-14T17:40:18.466Z,41.88
2023-02-14T17:42:20.068Z,56.67
2023-02-14T17:44:21.653Z,54.47
2023-02-14T17:46:23.457Z,55.17
2023-02-14T17:48:25.080Z,53.72
2023-02-14T17:50:26.699Z,47.03
2023-02-14T17:52:28.383Z,54.40
2023-02-14T17:54:29.992Z,47.95
2023-02-14T17:56:32.952Z,47.35
2023-02-14T17:58:35.004Z,43.20
2023-02-14T18:00:36.576Z,44.15
2023-02-14T18:02:41.104Z,41.45
2023-02-14T18:04:43.114Z,53.60
2023-02-14T18:06:44.986Z,55.38
2023-02-14T18:08:48.362Z,62.88
2023-02-14T18:10:50.317Z,75.00
2023-02-14T18:12:53.279Z,53.97
2023-02-14T18:14:54.951Z,57.05
2023-02-14T18:16:56.642Z,53.92
2023-02-14T18:19:01.817Z,67.50
2023-02-14T18:21:05.525Z,49.42
2023-02-14T18:23:07.078Z,58.00
2023-02-14T18:25:09.098Z,54.50
2023-02-14T18:27:10.675Z,54.50
2023-02-14T18:29:14.051Z,51.00
2023-02-14T18:31:17.554Z,53.55
2023-02-14T18:33:19.929Z,46.65
2023-02-14T18:35:21.472Z,52.58
2023-02-14T18:37:22.986Z,54.80
2023-02-14T18:39:24.636Z,57.70
2023-02-14T18:41:26.931Z,50.75
2023-02-14T18:43:28.602Z,53.05
2023-02-14T18:45:35.512Z,48.13
2023-02-14T18:47:37.119Z,54.78
2023-02-14T18:49:38.838Z,40.28
2023-02-14T18:51:41.761Z,59.53
2023-02-14T18:53:44.760Z,48.25
2023-02-14T18:55:46.392Z,44.17
2023-02-14T18:57:48.049Z,54.53
2023-02-14T18:59:49.854Z,46.92
2023-02-14T19:01:52.988Z,47.70
2023-02-14T19:03:55.549Z,45.28
2023-02-14T19:05:59.305Z,49.58
2023-02-14T19:08:01.278Z,47.35
2023-02-14T19:10:03.544Z,46.85
2023-02-14T19:12:07.255Z,44.33
2023-02-14T19:14:10.324Z,44.67
2023-02-14T19:16:14.032Z,46.78
2023-02-14T19:18:17.934Z,48.25
2023-02-14T19:20:19.769Z,45.70
2023-02-14T19:22:21.600Z,40.72
2023-02-14T19:24:23.296Z,43.75
2023-02-14T19:26:28.178Z,48.10
2023-02-14T19:28:30.111Z,40.35
2023-02-14T19:30:32.704Z,41.17
2023-02-14T19:32:34.333Z,43.63
2023-02-14T19:34:37.630Z,44.03
2023-02-14T19:36:40.281Z,43.65
2023-02-14T19:38:46.599Z,48.88
2023-02-14T19:40:50.502Z,43.22
2023-02-14T19:42:52.459Z,44.75
2023-02-14T19:44:54.147Z,47.17
2023-02-14T19:46:58.148Z,47.67
2023-02-14T19:49:00.992Z,55.92
2023-02-14T19:51:05.607Z,54.28
2023-02-14T19:53:07.126Z,54.95
2023-02-14T19:55:19.972Z,49.85
2023-02-14T19:57:21.907Z,50.85
2023-02-14T19:59:23.608Z,48.88
2023-02-14T20:01:29.236Z,52.55
2023-02-14T20:03:31.011Z,54.22
2023-02-14T20:05:32.593Z,48.03
2023-02-14T20:07:35.534Z,47.60
2023-02-14T20:09:37.167Z,48.08
2023-02-14T20:11:40.920Z,69.25
2023-02-14T20:13:42.559Z,53.78
2023-02-14T20:15:47.116Z,56.33
2023-02-14T20:17:48.674Z,45.47
2023-02-14T20:19:50.272Z,47.72
2023-02-14T20:21:51.992Z,48.83
2023-02-14T20:23:56.941Z,45.10
2023-02-14T20:25:58.895Z,47.53
2023-02-14T20:28:00.478Z,44.92
2023-02-14T20:30:02.070Z,44.60
2023-02-14T20:32:04.050Z,41.13
2023-02-14T20:34:05.766Z,51.00
2023-02-14T20:36:08.640Z,39.92
2023-02-14T20:38:10.292Z,47.72
2023-02-14T20:40:13.551Z,41.65
2023-02-14T20:42:15.182Z,36.72
2023-02-14T20:44:18.997Z,49.80
2023-02-14T20:46:21.587Z,41.17
2023-02-14T20:48:23.488Z,41.40
2023-02-14T20:50:25.114Z,43.30
2023-02-14T20:52:26.768Z,44.35
2023-02-14T20:54:29.478Z,44.13
2023-02-14T20:56:32.451Z,40.85
2023-02-14T20:58:35.416Z,38.65
2023-02-14T21:00:37.111Z,43.63
2023-02-14T21:02:38.770Z,44.55
2023-02-14T21:04:40.703Z,70.10
2023-02-14T21:06:42.295Z,57.05
2023-02-14T21:08:45.081Z,70.60
2023-02-14T21:10:46.742Z,40.92
2023-02-14T21:12:49.832Z,46.35
2023-02-14T21:14:51.505Z,43.13
2023-02-14T21:16:53.106Z,62.50
2023-02-14T21:18:56.831Z,49.13
2023-02-14T21:21:03.781Z,91.25
2023-02-14T21:23:05.353Z,76.82
2023-02-14T21:25:07.460Z,81.05
2023-02-14T21:27:09.049Z,104.18
2023-02-14T21:29:12.106Z,75.40
2023-02-14T21:31:15.678Z,82.10
2023-02-14T21:33:17.339Z,55.17
2023-02-14T21:35:18.852Z,45.85
2023-02-14T21:37:20.477Z,47.38
2023-02-14T21:39:22.431Z,46.00
2023-02-14T21:41:25.957Z,49.15
2023-02-14T21:43:27.579Z,69.18
2023-02-14T21:45:30.775Z,54.15
2023-02-14T21:47:36.574Z,47.53
2023-02-14T21:49:38.250Z,37.88
2023-02-14T21:51:40.630Z,49.90
2023-02-14T21:53:42.709Z,46.13
2023-02-14T21:55:44.436Z,40.03
2023-02-14T21:57:46.100Z,54.78
2023-02-14T21:59:47.727Z,63.15
2023-02-14T22:01:50.665Z,54.60
2023-02-14T22:03:53.046Z,51.65
2023-02-14T22:06:01.236Z,83.78
2023-02-14T22:08:03.016Z,64.70
2023-02-14T22:10:05.788Z,84.38
2023-02-14T22:12:07.577Z,76.38
2023-02-14T22:14:09.153Z,49.03
2023-02-14T22:16:14.192Z,80.47
2023-02-14T22:18:17.670Z,86.80
2023-02-14T22:20:19.641Z,43.47
2023-02-14T22:22:21.255Z,60.53
2023-02-14T22:24:22.806Z,52.42
2023-02-14T22:26:26.682Z,47.65
2023-02-14T22:28:28.312Z,118.70
2023-02-14T22:30:29.806Z,87.35
2023-02-14T22:32:31.405Z,63.72
2023-02-14T22:34:34.649Z,75.45
2023-02-14T22:36:36.366Z,46.03
2023-02-14T22:38:38.837Z,76.93
2023-02-14T22:40:40.391Z,76.88
2023-02-14T22:42:42.007Z,52.08
2023-02-14T22:44:43.615Z,80.45
2023-02-14T22:46:45.197Z,55.17
2023-02-14T22:48:47.644Z,73.10
2023-02-14T22:50:50.501Z,47.15
2023-02-14T22:52:52.063Z,73.40
2023-02-14T22:54:53.615Z,62.83
2023-02-14T22:56:55.194Z,48.35
2023-02-14T22:58:58.839Z,39.60
2023-02-14T23:01:00.476Z,38.53
2023-02-14T23:03:02.080Z,37.33
2023-02-14T23:05:03.833Z,53.78
2023-02-14T23:07:06.886Z,44.22
2023-02-14T23:09:10.560Z,37.00
2023-02-14T23:11:14.609Z,41.85
2023-02-14T23:13:16.146Z,45.95
2023-02-14T23:15:17.884Z,86.00
2023-02-14T23:17:19.479Z,72.80
2023-02-14T23:19:23.832Z,36.08
2023-02-14T23:21:25.408Z,47.67
2023-02-14T23:23:34.588Z,37.63
2023-02-14T23:25:36.317Z,41.30
2023-02-14T23:27:39.364Z,58.05
2023-02-14T23:29:40.988Z,67.57
2023-02-14T23:31:42.755Z,89.63
2023-02-14T23:33:44.388Z,36.45
2023-02-14T23:35:45.996Z,35.03
2023-02-14T23:37:47.548Z,47.95
2023-02-14T23:39:50.623Z,48.30
2023-02-14T23:41:52.624Z,44.42
2023-02-14T23:43:54.185Z,45.50
2023-02-14T23:45:55.789Z,44.03
2023-02-14T23:48:01.737Z,44.03
2023-02-14T23:50:03.306Z,48.35
2023-02-14T23:52:06.482Z,45.15
2023-02-14T23:54:08.594Z,41.25
2023-02-14T23:56:11.497Z,39.25
2023-02-14T23:58:13.008Z,41.78
